Time;durP1;ratioP1;P1;durP2;ratioP2;P2;SDS_P1;SDS_P2;PMS_P1;PMS_P2;Temp;Humidity;BMP_temperature;BMP_pressure;BME280_temperature;BME280_humidity;BME280_pressure;Samples;Min_cycle;Max_cycle;Signal;HPM_P1;HPM_P2
2023/03/25 00:06:37;;;;;;;4.80;0.90;;;;;;;9.17;100.00;99669.53;20896639;28;20045;-81
2023/03/25 00:16:38;;;;;;;4.43;0.90;;;;;;;9.01;100.00;99658.56;20956688;28;20344;-79
2023/03/25 00:26:41;;;;;;;8.27;1.25;;;;;;;8.93;100.00;99666.53;20980449;28;20048;-81
2023/03/25 00:36:44;;;;;;;7.15;0.88;;;;;;;8.79;100.00;99663.34;20990173;28;20051;-80
2023/03/25 00:46:45;;;;;;;4.13;0.77;;;;;;;8.94;100.00;99629.09;20985176;28;20057;-80
2023/03/25 00:56:47;;;;;;;5.00;1.38;;;;;;;8.99;100.00;99623.78;20969274;28;20478;-79
2023/03/25 01:06:50;;;;;;;4.63;0.75;;;;;;;8.97;100.00;99610.75;20976773;28;20049;-79
2023/03/25 01:27:29;;;;;;;4.60;1.08;;;;;;;9.10;100.00;99642.69;20981581;28;20036;-78
2023/03/25 01:37:32;;;;;;;3.03;0.80;;;;;;;8.77;100.00;99643.38;20997165;28;20037;-80
2023/03/25 01:47:34;;;;;;;5.07;0.65;;;;;;;8.35;100.00;99688.53;20990271;28;20064;-78
2023/03/25 01:57:36;;;;;;;5.32;0.60;;;;;;;7.97;100.00;99632.69;20896577;22;20128;-75
2023/03/25 02:07:38;;;;;;;3.30;0.60;;;;;;;8.06;100.00;99643.84;20810835;28;20057;-75
2023/03/25 02:17:39;;;;;;;1.45;0.30;;;;;;;8.05;100.00;99649.94;20814724;28;20053;-75
2023/03/25 02:27:45;;;;;;;1.60;0.38;;;;;;;7.97;100.00;99658.75;20811034;28;20137;-76
2023/03/25 02:37:46;;;;;;;3.53;0.90;;;;;;;7.89;100.00;99672.81;20858067;23;20156;-78
2023/03/25 02:47:50;;;;;;;1.27;0.47;;;;;;;7.86;100.00;99663.31;20864456;28;20478;-78
2023/03/25 02:57:51;;;;;;;2.80;0.40;;;;;;;7.87;100.00;99678.06;20864963;28;20508;-77
2023/03/25 03:07:53;;;;;;;1.67;0.50;;;;;;;7.88;100.00;99671.94;20886416;28;20045;-77
2023/03/25 03:17:54;;;;;;;3.35;0.65;;;;;;;7.76;100.00;99682.59;20870741;28;20104;-77
2023/03/25 03:27:57;;;;;;;2.38;0.40;;;;;;;7.78;100.00;99670.38;20885320;28;20049;-77
2023/03/25 03:37:58;;;;;;;3.72;0.80;;;;;;;7.80;100.00;99665.13;20881344;28;20045;-77
2023/03/25 03:48:00;;;;;;;3.70;0.70;;;;;;;7.71;100.00;99666.13;20867448;28;20099;-77
2023/03/25 03:58:02;;;;;;;4.13;0.75;;;;;;;7.97;100.00;99671.78;20877700;28;20049;-77
2023/03/25 04:08:10;;;;;;;3.13;0.90;;;;;;;8.01;100.00;99684.78;20865595;28;20041;-77
2023/03/25 04:18:12;;;;;;;7.25;0.70;;;;;;;8.08;100.00;99689.84;20874093;28;20092;-77
2023/03/25 04:28:16;;;;;;;2.75;0.73;;;;;;;8.11;100.00;99699.38;20868820;28;20049;-77
2023/03/25 04:38:17;;;;;;;4.67;0.80;;;;;;;7.88;100.00;99702.38;20866250;28;20103;-77
2023/03/25 04:48:19;;;;;;;7.43;1.10;;;;;;;8.07;100.00;99692.50;20871759;28;20051;-77
2023/03/25 04:58:20;;;;;;;6.72;1.40;;;;;;;8.08;100.00;99689.00;20880981;28;20057;-77
2023/03/25 05:08:22;;;;;;;9.15;1.38;;;;;;;8.16;100.00;99693.19;20892604;28;20047;-77
2023/03/25 05:18:23;;;;;;;9.88;1.30;;;;;;;8.15;100.00;99688.03;20890648;28;20111;-77
2023/03/25 05:28:24;;;;;;;9.77;1.58;;;;;;;7.93;100.00;99685.75;20887920;28;20060;-77
2023/03/25 05:38:26;;;;;;;11.55;1.55;;;;;;;7.92;100.00;99710.13;20867951;28;20077;-77
2023/03/25 05:48:31;;;;;;;9.32;1.45;;;;;;;8.04;100.00;99710.78;20864396;28;20398;-77
2023/03/25 05:58:32;;;;;;;11.77;1.90;;;;;;;8.15;100.00;99722.78;20881863;28;20052;-77
2023/03/25 06:08:34;;;;;;;13.07;1.80;;;;;;;8.48;100.00;99736.16;20892582;28;20053;-77
2023/03/25 06:18:36;;;;;;;8.73;1.60;;;;;;;8.46;100.00;99741.38;20884596;28;20052;-77
2023/03/25 06:28:37;;;;;;;11.75;1.58;;;;;;;8.14;100.00;99752.31;20890121;28;20057;-78
2023/03/25 06:38:38;;;;;;;9.90;1.60;;;;;;;8.08;100.00;99767.22;20877283;28;20041;-77
2023/03/25 06:48:40;;;;;;;11.05;1.80;;;;;;;8.24;100.00;99755.66;20881078;28;20046;-77
2023/03/25 06:58:42;;;;;;;9.07;2.65;;;;;;;8.71;100.00;99747.00;20868223;28;20513;-77
2023/03/25 07:08:43;;;;;;;13.93;1.75;;;;;;;8.74;100.00;99739.13;20874357;28;20092;-78
2023/03/25 07:18:45;;;;;;;8.30;1.40;;;;;;;8.79;100.00;99746.88;20853907;28;20321;-77
2023/03/25 07:28:46;;;;;;;11.27;1.35;;;;;;;8.83;100.00;99732.88;20870737;28;20524;-77
2023/03/25 07:38:48;;;;;;;7.95;1.13;;;;;;;8.74;100.00;99738.28;20884230;28;20047;-78
2023/03/25 07:48:49;;;;;;;5.32;1.55;;;;;;;8.50;100.00;99754.38;20876591;28;20064;-77
2023/03/25 07:58:51;;;;;;;7.85;1.20;;;;;;;8.13;100.00;99760.19;20896806;28;20053;-77
2023/03/25 08:08:52;;;;;;;7.00;0.80;;;;;;;7.66;100.00;99767.81;20898812;28;20041;-78
2023/03/25 08:18:53;;;;;;;3.28;0.80;;;;;;;7.51;100.00;99741.13;20893460;28;20042;-77
2023/03/25 08:28:56;;;;;;;13.43;1.67;;;;;;;7.11;100.00;99780.69;20886225;28;20117;-78
2023/03/25 08:38:58;;;;;;;4.70;0.57;;;;;;;6.88;100.00;99786.16;20888160;28;20550;-77
2023/03/25 08:49:00;;;;;;;4.35;0.90;;;;;;;7.86;100.00;99780.59;20886946;28;20069;-80
2023/03/25 08:59:01;;;;;;;4.07;1.27;;;;;;;8.89;100.00;99768.44;20882514;28;20140;-81
2023/03/25 09:09:06;;;;;;;7.05;1.58;;;;;;;9.51;100.00;99748.88;20911663;28;20272;-81
2023/03/25 09:19:08;;;;;;;5.97;1.00;;;;;;;9.70;100.00;99753.72;20906483;28;20103;-80
2023/03/25 09:29:09;;;;;;;4.35;1.40;;;;;;;10.25;100.00;99752.44;20921968;28;20056;-80
2023/03/25 09:39:10;;;;;;;4.68;1.00;;;;;;;10.24;100.00;99755.94;20903136;28;20070;-80
2023/03/25 09:49:11;;;;;;;3.05;0.80;;;;;;;9.97;100.00;99766.16;20902700;28;20118;-80
2023/03/25 09:59:13;;;;;;;4.82;1.10;;;;;;;10.75;100.00;99748.53;20891073;28;20049;-78
2023/03/25 10:09:14;;;;;;;2.90;0.88;;;;;;;10.74;100.00;99743.34;20886483;28;20100;-78
2023/03/25 10:19:15;;;;;;;2.30;0.60;;;;;;;10.29;100.00;99743.59;20883510;28;20465;-79
2023/03/25 10:29:17;;;;;;;3.08;0.77;;;;;;;9.43;100.00;99731.66;20907458;28;20061;-79
2023/03/25 10:39:18;;;;;;;3.05;0.80;;;;;;;9.62;100.00;99745.16;20899135;28;20131;-79
2023/03/25 10:49:19;;;;;;;7.35;1.13;;;;;;;10.39;100.00;99729.38;20902626;28;20061;-79
2023/03/25 10:59:21;;;;;;;6.90;1.33;;;;;;;11.03;100.00;99717.19;20887779;28;20041;-79
2023/03/25 11:09:22;;;;;;;7.88;1.00;;;;;;;11.22;100.00;99719.28;20878843;28;20489;-79
2023/03/25 11:19:24;;;;;;;8.68;1.20;;;;;;;11.43;100.00;99718.63;20890179;28;20477;-77
2023/03/25 11:29:25;;;;;;;5.78;1.10;;;;;;;11.72;100.00;99720.34;20877597;28;20045;-78
2023/03/25 11:39:27;;;;;;;6.22;1.27;;;;;;;11.99;100.00;99713.41;20879283;28;20047;-78
2023/03/25 11:49:28;;;;;;;2.47;0.50;;;;;;;11.04;100.00;99759.97;20887971;28;20096;-80
2023/03/25 11:59:29;;;;;;;1.95;0.57;;;;;;;10.62;100.00;99734.03;20880052;28;20524;-79
2023/03/25 12:09:32;;;;;;;3.90;0.68;;;;;;;10.79;100.00;99737.06;20878396;28;20048;-80
2023/03/25 12:19:33;;;;;;;4.82;0.90;;;;;;;11.04;100.00;99723.28;20882043;28;20107;-79
2023/03/25 12:29:35;;;;;;;3.83;0.65;;;;;;;11.90;100.00;99705.84;20884543;28;20333;-79
2023/03/25 12:39:36;;;;;;;2.83;0.80;;;;;;;12.60;89.40;99692.13;20882563;28;20045;-78
2023/03/25 12:49:43;;;;;;;4.38;0.77;;;;;;;12.93;78.05;99690.03;20867405;28;20045;-79
2023/03/25 12:59:45;;;;;;;3.58;0.85;;;;;;;13.39;73.65;99703.25;20860057;28;20065;-79
2023/03/25 13:19:56;;;;;;;4.43;1.38;;;;;;;13.65;72.83;99696.97;20808887;28;20046;-72
2023/03/25 13:29:57;;;;;;;5.45;0.90;;;;;;;13.08;72.71;99689.47;20819466;28;20088;-72
2023/03/25 13:39:58;;;;;;;4.00;0.75;;;;;;;13.08;76.02;99678.97;20817853;28;20056;-70
2023/03/25 13:50:00;;;;;;;2.22;0.70;;;;;;;13.34;78.51;99696.41;20817298;28;20056;-70
2023/03/25 14:00:01;;;;;;;3.65;0.73;;;;;;;12.27;82.06;99709.88;20813725;28;20045;-70
2023/03/25 14:10:02;;;;;;;3.75;0.60;;;;;;;12.32;79.68;99703.56;20817020;28;20046;-73
2023/03/25 14:20:07;;;;;;;4.20;0.90;;;;;;;12.56;76.53;99701.00;20818944;28;20053;-72
2023/03/25 14:30:08;;;;;;;7.90;0.83;;;;;;;12.80;72.97;99688.78;20817034;28;20053;-72
2023/03/25 14:40:10;;;;;;;5.03;1.10;;;;;;;12.99;70.32;99673.19;20818176;28;20140;-72
2023/03/25 14:50:11;;;;;;;7.20;0.80;;;;;;;13.14;67.77;99656.84;20814251;28;20080;-72
2023/03/25 15:10:22;;;;;;;4.35;0.90;;;;;;;13.28;63.36;99674.75;20829082;28;20049;-79
2023/03/25 15:20:23;;;;;;;4.63;0.80;;;;;;;13.20;58.24;99656.59;20832012;28;20061;-79
2023/03/25 15:30:25;;;;;;;5.72;0.90;;;;;;;13.30;57.51;99667.66;20824384;28;20060;-78
2023/03/25 15:40:26;;;;;;;5.82;0.88;;;;;;;13.29;56.28;99671.19;20845251;28;20073;-79
2023/03/25 15:50:27;;;;;;;3.95;0.80;;;;;;;13.40;56.47;99647.97;20871804;28;20046;-80
2023/03/25 16:00:29;;;;;;;4.65;0.88;;;;;;;13.28;56.02;99653.72;20873152;28;20101;-80
2023/03/25 16:10:31;;;;;;;2.58;0.68;;;;;;;13.17;58.23;99667.22;20867970;28;20045;-80
2023/03/25 16:20:33;;;;;;;5.68;1.30;;;;;;;13.33;60.40;99665.78;20870475;28;20052;-79
2023/03/25 16:30:37;;;;;;;4.90;1.20;;;;;;;13.21;63.20;99675.84;20860083;28;20053;-79
2023/03/25 16:40:39;;;;;;;6.40;1.20;;;;;;;13.19;62.03;99668.03;20830715;28;20111;-80
2023/03/25 16:50:40;;;;;;;9.25;2.65;;;;;;;13.04;64.59;99672.09;20865608;28;20307;-79
2023/03/25 17:00:42;;;;;;;5.20;1.58;;;;;;;12.99;65.01;99675.81;20892335;28;20057;-80
2023/03/25 17:10:43;;;;;;;6.90;1.58;;;;;;;12.88;66.46;99673.56;20889170;28;20073;-80
2023/03/25 17:20:44;;;;;;;16.65;6.75;;;;;;;12.68;65.96;99679.56;20890085;28;20101;-80
2023/03/25 17:30:46;;;;;;;9.00;1.65;;;;;;;12.44;68.01;99707.53;20887963;28;20050;-80
2023/03/25 17:40:47;;;;;;;8.20;2.22;;;;;;;12.41;68.95;99736.53;20880198;28;20053;-80
2023/03/25 17:50:49;;;;;;;6.68;2.13;;;;;;;12.29;70.07;99747.44;20864017;28;20052;-79
2023/03/25 18:00:51;;;;;;;3.80;1.00;;;;;;;12.13;72.91;99767.22;20880501;28;20085;-80
2023/03/25 18:10:53;;;;;;;4.53;0.95;;;;;;;11.70;79.80;99784.25;20879857;28;20045;-80
2023/03/25 18:20:55;;;;;;;3.40;0.65;;;;;;;11.52;78.26;99799.63;20866492;28;20069;-79
2023/03/25 18:30:58;;;;;;;4.53;0.85;;;;;;;11.39;81.11;99819.22;20871502;28;20126;-80
2023/03/25 18:40:59;;;;;;;5.45;0.80;;;;;;;11.28;85.88;99829.16;20871035;28;20057;-80
2023/03/25 18:51:01;;;;;;;4.78;0.70;;;;;;;11.20;88.84;99829.34;20869543;28;20053;-79
2023/03/25 19:01:02;;;;;;;3.67;0.88;;;;;;;11.22;88.79;99838.06;20872665;28;20061;-79
2023/03/25 19:11:04;;;;;;;9.77;1.15;;;;;;;11.08;91.82;99848.06;20869555;28;20160;-79
2023/03/25 19:21:21;;;;;;;4.07;1.17;;;;;;;10.98;92.37;99849.19;20850518;28;20441;-79
2023/03/25 19:31:23;;;;;;;7.18;1.73;;;;;;;10.78;94.32;99863.66;20859674;28;20434;-79
2023/03/25 19:41:24;;;;;;;5.78;1.60;;;;;;;10.76;97.88;99911.72;20854080;28;20115;-79
2023/03/25 19:51:25;;;;;;;3.17;0.60;;;;;;;9.65;100.00;99908.03;20799614;28;20446;-79
2023/03/25 20:01:27;;;;;;;3.13;0.63;;;;;;;9.05;100.00;99928.31;20842039;28;20071;-80
2023/03/25 20:11:30;;;;;;;3.70;0.90;;;;;;;9.05;100.00;99928.31;20866752;28;20049;-80
2023/03/25 20:21:31;;;;;;;6.82;0.85;;;;;;;8.93;100.00;99921.56;20854548;28;20111;-80
2023/03/25 20:31:35;;;;;;;2.90;0.50;;;;;;;8.93;100.00;99877.16;20857119;28;20049;-80
2023/03/25 20:41:36;;;;;;;4.10;1.00;;;;;;;9.00;100.00;99884.84;20831292;28;20053;-80
2023/03/25 20:51:39;;;;;;;4.35;1.20;;;;;;;8.99;100.00;99874.44;20832150;28;20069;-77
2023/03/25 21:01:42;;;;;;;;;;;;;;;8.97;100.00;99897.97;20795990;28;20100;-78
2023/03/25 21:11:44;;;;;;;4.35;1.70;;;;;;;9.02;100.00;99905.72;20997643;23;20019;-78
2023/03/25 21:21:45;;;;;;;7.15;0.90;;;;;;;9.12;100.00;99902.06;20920983;23;20493;-79
2023/03/25 21:31:49;;;;;;;8.52;1.17;;;;;;;9.03;100.00;99906.59;20969699;28;20631;-78
2023/03/25 21:41:50;;;;;;;4.95;0.88;;;;;;;9.05;100.00;99894.34;20959229;28;20405;-79
2023/03/25 21:51:55;;;;;;;7.20;1.50;;;;;;;9.05;100.00;99891.75;20989466;28;20044;-78
2023/03/25 22:01:57;;;;;;;5.93;1.23;;;;;;;9.12;100.00;99885.53;20978916;28;20066;-78
2023/03/25 22:11:58;;;;;;;6.72;1.40;;;;;;;9.05;100.00;99889.13;20982346;28;20064;-78
2023/03/25 22:22:01;;;;;;;7.68;1.00;;;;;;;8.95;100.00;99863.19;20961727;28;20056;-78
2023/03/25 22:32:05;;;;;;;7.93;1.40;;;;;;;8.96;100.00;99864.94;20976370;28;20044;-78
2023/03/25 22:42:07;;;;;;;6.28;1.55;;;;;;;9.08;100.00;99857.75;20982355;28;20588;-78
2023/03/25 22:52:08;;;;;;;4.15;1.23;;;;;;;8.92;100.00;99878.06;20970140;28;20044;-78
2023/03/25 23:02:12;;;;;;;6.63;1.00;;;;;;;8.87;100.00;99885.97;20956538;28;20068;-78
2023/03/25 23:12:13;;;;;;;8.83;1.40;;;;;;;8.83;100.00;99881.69;20938494;28;20470;-79
2023/03/25 23:22:18;;;;;;;8.38;1.58;;;;;;;8.86;100.00;99871.19;20961275;28;20059;-78
2023/03/25 23:32:20;;;;;;;8.25;1.65;;;;;;;8.80;100.00;99863.44;20943901;28;20177;-78
2023/03/25 23:42:21;;;;;;;7.18;1.60;;;;;;;8.74;100.00;99855.72;20957377;28;20060;-78
2023/03/25 23:52:35;;;;;;;9.63;1.88;;;;;;;8.59;100.00;99845.56;20936659;28;20166;-78
